Aérodrome :
LOGIN :

S'inscrire | Disclaimer

   EN    FR    IT 

 










Légende :    VFR   VFR Marginal   IFR   IFR Intensif   IFR Très Intensif
Visi : 
Plafond : 
>= 8 km
>= 3000ft
5 à 8 km
1000 à 3000 ft
1500m à 5 km
500 à 1000 ft
800 à 1500m
200 à 500 ft
< 800m
< 200 ft
Symboles :   Orages  Brouillard  Fortes neiges  Fortes précipitations  Vent > 20 kt
SIGMETs :   Divers  Orages  Givrage  Turbulence  Onde Orograph.  Cendres Volcan.







- Altitude de l'aérodrome : 1516 ft
- Code IATA : AGB


EDMA - Augsburg

DERNIER METAR :
  • 240820Z 32004KT 190V360 9999 SCT030 16/08 Q1022

METARs EXPIRÉS :
  • 240750Z 31004KT 220V020 9999 SCT028 16/08 Q1022
  • 240720Z VRB02KT 9999 SCT028 16/08 Q1022
  • 240650Z 34003KT 300V020 9999 FEW025 15/08 Q1022
  • 240620Z AUTO 36004KT 310V040 9999 // FEW037/// 14/09 Q1022
  • 240550Z AUTO 30004KT 280V340 9999 // FEW032/// BKN047/// 13/09 Q1022

TAF TAF EDMA
Valide du 24 à 09h jusqu'au 24 à 18h UTC


240800Z 2409/2418 34005KT 9999 SCT035
Pas de NOTAMs connus pour ce terrain.



MET'MAP, la Météo Aéronautique d'un coup d'oeil ! - Copyright ORBIFLY Décembre 2007 - Disclaimer

ORBIFLY MET'MAP TEAM :

Programmation & Développement : Alexandra Zaïnal
Conception & Développement : Baudouin d'Aumeries
Co-Programmation & Développement : Marc-Olivier Méhu
Soutien technique & logistique : Manuel Goepfert

Contact : metmap@orbifly.com




SOURCES & CREDITS :

   NOAA